sensor_id;sensor_type;location;lat;lon;timestamp;pressure;altitude;pressure_sealevel;temperature;humidity
49377;BME280;35253;34.688;33.040;2022-09-01T00:00:23;100304.75;;;29.49;100.00
49377;BME280;35253;34.688;33.040;2022-09-01T00:02:53;100304.50;;;29.57;100.00
49377;BME280;35253;34.688;33.040;2022-09-01T00:05:19;100305.75;;;29.61;100.00
49377;BME280;35253;34.688;33.040;2022-09-01T00:07:44;100307.69;;;29.54;100.00
49377;BME280;35253;34.688;33.040;2022-09-01T00:10:10;100303.66;;;29.57;100.00
49377;BME280;35253;34.688;33.040;2022-09-01T00:12:36;100302.59;;;29.58;100.00
49377;BME280;35253;34.688;33.040;2022-09-01T00:15:01;100304.22;;;29.65;100.00
49377;BME280;35253;34.688;33.040;2022-09-01T00:17:27;100303.59;;;29.63;100.00
49377;BME280;35253;34.688;33.040;2022-09-01T00:19:54;100304.22;;;29.65;100.00
49377;BME280;35253;34.688;33.040;2022-09-01T00:22:19;100300.84;;;29.63;100.00
49377;BME280;35253;34.688;33.040;2022-09-01T00:24:45;100297.50;;;29.61;100.00
49377;BME280;35253;34.688;33.040;2022-09-01T00:27:10;100299.78;;;29.64;100.00
49377;BME280;35253;34.688;33.040;2022-09-01T00:29:36;100302.59;;;29.58;100.00
49377;BME280;35253;34.688;33.040;2022-09-01T00:32:02;100294.59;;;29.56;100.00
49377;BME280;35253;34.688;33.040;2022-09-01T00:34:27;100297.31;;;29.56;100.00
49377;BME280;35253;34.688;33.040;2022-09-01T00:36:53;100304.72;;;29.55;100.00
49377;BME280;35253;34.688;33.040;2022-09-01T00:39:18;100306.41;;;29.57;100.00
49377;BME280;35253;34.688;33.040;2022-09-01T00:41:44;100303.44;;;29.58;100.00
49377;BME280;35253;34.688;33.040;2022-09-01T00:44:15;100308.50;;;29.61;100.00
49377;BME280;35253;34.688;33.040;2022-09-01T00:46:44;100310.78;;;29.64;100.00
49377;BME280;35253;34.688;33.040;2022-09-01T00:49:31;100310.34;;;29.67;100.00
49377;BME280;35253;34.688;33.040;2022-09-01T00:51:58;100311.34;;;29.73;100.00
49377;BME280;35253;34.688;33.040;2022-09-01T00:54:25;100318.53;;;29.74;100.00
49377;BME280;35253;34.688;33.040;2022-09-01T00:56:51;100315.53;;;29.75;100.00
49377;BME280;35253;34.688;33.040;2022-09-01T00:59:17;100307.66;;;29.61;100.00
49377;BME280;35253;34.688;33.040;2022-09-01T01:01:45;100312.13;;;29.55;100.00
49377;BME280;35253;34.688;33.040;2022-09-01T01:04:10;100313.00;;;29.49;100.00
49377;BME280;35253;34.688;33.040;2022-09-01T01:06:45;100321.34;;;29.36;100.00
49377;BME280;35253;34.688;33.040;2022-09-01T01:09:17;100315.09;;;29.16;100.00
49377;BME280;35253;34.688;33.040;2022-09-01T01:11:42;100312.53;;;29.21;100.00
49377;BME280;35253;34.688;33.040;2022-09-01T01:14:12;100320.66;;;29.02;100.00
49377;BME280;35253;34.688;33.040;2022-09-01T01:16:40;100320.28;;;28.99;100.00
49377;BME280;35253;34.688;33.040;2022-09-01T01:19:10;100308.50;;;28.85;100.00
49377;BME280;35253;34.688;33.040;2022-09-01T01:21:59;100320.34;;;28.79;100.00
49377;BME280;35253;34.688;33.040;2022-09-01T01:24:42;100308.31;;;28.80;100.00
49377;BME280;35253;34.688;33.040;2022-09-01T01:27:08;100317.38;;;28.87;100.00
49377;BME280;35253;34.688;33.040;2022-09-01T01:29:34;100322.63;;;28.95;100.00
49377;BME280;35253;34.688;33.040;2022-09-01T01:32:04;100316.50;;;28.93;100.00
49377;BME280;35253;34.688;33.040;2022-09-01T01:34:36;100318.84;;;28.90;100.00
49377;BME280;35253;34.688;33.040;2022-09-01T01:37:04;100324.94;;;28.92;100.00
49377;BME280;35253;34.688;33.040;2022-09-01T01:39:29;100326.66;;;28.86;100.00
49377;BME280;35253;34.688;33.040;2022-09-01T01:41:55;100326.81;;;28.98;100.00
49377;BME280;35253;34.688;33.040;2022-09-01T01:44:23;100318.97;;;29.01;100.00
49377;BME280;35253;34.688;33.040;2022-09-01T01:46:52;100322.75;;;29.07;100.00
49377;BME280;35253;34.688;33.040;2022-09-01T01:49:20;100325.91;;;29.10;100.00
49377;BME280;35253;34.688;33.040;2022-09-01T01:51:49;100331.38;;;29.10;100.00
49377;BME280;35253;34.688;33.040;2022-09-01T01:54:17;100326.09;;;29.16;100.00
49377;BME280;35253;34.688;33.040;2022-09-01T01:56:44;100328.00;;;29.15;100.00
49377;BME280;35253;34.688;33.040;2022-09-01T01:59:09;100321.91;;;29.06;100.00
49377;BME280;35253;34.688;33.040;2022-09-01T02:01:41;100324.91;;;28.98;100.00
49377;BME280;35253;34.688;33.040;2022-09-01T02:04:07;100330.41;;;28.98;100.00
49377;BME280;35253;34.688;33.040;2022-09-01T02:06:34;100322.63;;;28.95;100.00
49377;BME280;35253;34.688;33.040;2022-09-01T02:08:59;100331.66;;;29.02;100.00
49377;BME280;35253;34.688;33.040;2022-09-01T02:11:25;100325.56;;;29.00;100.00
49377;BME280;35253;34.688;33.040;2022-09-01T02:13:51;100325.38;;;28.95;100.00
49377;BME280;35253;34.688;33.040;2022-09-01T02:16:20;100329.59;;;28.91;100.00
49377;BME280;35253;34.688;33.040;2022-09-01T02:18:47;100327.91;;;28.90;100.00
49377;BME280;35253;34.688;33.040;2022-09-01T02:21:13;100332.56;;;28.90;100.00
49377;BME280;35253;34.688;33.040;2022-09-01T02:23:42;100334.66;;;28.94;100.00
49377;BME280;35253;34.688;33.040;2022-09-01T02:26:08;100338.63;;;28.98;100.00
49377;BME280;35253;34.688;33.040;2022-09-01T02:28:36;100335.69;;;29.00;100.00
49377;BME280;35253;34.688;33.040;2022-09-01T02:31:04;100345.34;;;29.09;100.00
49377;BME280;35253;34.688;33.040;2022-09-01T02:33:33;100340.28;;;29.06;100.00
49377;BME280;35253;34.688;33.040;2022-09-01T02:36:02;100344.94;;;29.05;100.00
49377;BME280;35253;34.688;33.040;2022-09-01T02:38:29;100343.03;;;29.06;100.00
49377;BME280;35253;34.688;33.040;2022-09-01T02:40:58;100346.44;;;29.01;100.00
49377;BME280;35253;34.688;33.040;2022-09-01T02:43:24;100346.06;;;28.91;100.00
49377;BME280;35253;34.688;33.040;2022-09-01T02:45:53;100346.88;;;28.92;100.00
49377;BME280;35253;34.688;33.040;2022-09-01T02:48:29;100346.94;;;28.79;100.00
49377;BME280;35253;34.688;33.040;2022-09-01T02:50:57;100354.38;;;28.78;100.00
49377;BME280;35253;34.688;33.040;2022-09-01T02:53:24;100357.97;;;28.72;100.00
49377;BME280;35253;34.688;33.040;2022-09-01T02:55:49;100352.03;;;28.68;100.00
49377;BME280;35253;34.688;33.040;2022-09-01T02:58:15;100355.44;;;28.64;100.00
49377;BME280;35253;34.688;33.040;2022-09-01T03:00:50;100357.53;;;28.62;100.00
49377;BME280;35253;34.688;33.040;2022-09-01T03:03:16;100362.41;;;28.60;100.00
49377;BME280;35253;34.688;33.040;2022-09-01T03:05:46;100360.50;;;28.60;100.00
49377;BME280;35253;34.688;33.040;2022-09-01T03:08:11;100354.16;;;28.60;100.00
49377;BME280;35253;34.688;33.040;2022-09-01T03:10:41;100351.19;;;28.68;100.00
49377;BME280;35253;34.688;33.040;2022-09-01T03:13:08;100355.63;;;28.69;100.00
49377;BME280;35253;34.688;33.040;2022-09-01T03:15:34;100356.91;;;28.73;100.00
49377;BME280;35253;34.688;33.040;2022-09-01T03:18:02;100355.41;;;28.77;100.00
49377;BME280;35253;34.688;33.040;2022-09-01T03:20:28;100355.38;;;28.84;100.00
49377;BME280;35253;34.688;33.040;2022-09-01T03:22:55;100360.22;;;28.88;100.00
49377;BME280;35253;34.688;33.040;2022-09-01T03:25:22;100365.44;;;28.96;100.00
49377;BME280;35253;34.688;33.040;2022-09-01T03:27:49;100360.16;;;29.01;100.00
49377;BME280;35253;34.688;33.040;2022-09-01T03:30:15;100367.13;;;29.04;100.00
49377;BME280;35253;34.688;33.040;2022-09-01T03:32:41;100367.72;;;29.06;100.00
49377;BME280;35253;34.688;33.040;2022-09-01T03:35:06;100370.47;;;29.06;100.00
49377;BME280;35253;34.688;33.040;2022-09-01T03:37:33;100370.94;;;28.96;100.00
49377;BME280;35253;34.688;33.040;2022-09-01T03:40:00;100373.69;;;28.96;100.00
49377;BME280;35253;34.688;33.040;2022-09-01T03:42:28;100368.84;;;28.98;100.00
49377;BME280;35253;34.688;33.040;2022-09-01T03:44:53;100372.22;;;29.00;100.00
49377;BME280;35253;34.688;33.040;2022-09-01T03:47:19;100370.47;;;29.06;100.00
49377;BME280;35253;34.688;33.040;2022-09-01T03:49:45;100380.81;;;29.10;100.00
49377;BME280;35253;34.688;33.040;2022-09-01T03:52:13;100379.31;;;29.15;100.00
49377;BME280;35253;34.688;33.040;2022-09-01T03:54:39;100376.31;;;29.23;100.00
49377;BME280;35253;34.688;33.040;2022-09-01T03:57:05;100377.59;;;29.27;100.00
49377;BME280;35253;34.688;33.040;2022-09-01T03:59:34;100381.75;;;29.36;100.00
49377;BME280;35253;34.688;33.040;2022-09-01T04:02:00;100372.47;;;29.37;100.00
49377;BME280;35253;34.688;33.040;2022-09-01T04:04:27;100384.28;;;29.44;100.00
49377;BME280;35253;34.688;33.040;2022-09-01T04:06:55;100377.47;;;29.46;100.00
49377;BME280;35253;34.688;33.040;2022-09-01T04:09:21;100382.31;;;29.51;100.00
49377;BME280;35253;34.688;33.040;2022-09-01T04:11:46;100382.72;;;29.54;100.00
49377;BME280;35253;34.688;33.040;2022-09-01T04:14:12;100376.09;;;29.62;100.00
49377;BME280;35253;34.688;33.040;2022-09-01T04:16:38;100381.34;;;29.70;100.00
49377;BME280;35253;34.688;33.040;2022-09-01T04:19:23;100382.59;;;29.74;100.00
49377;BME280;35253;34.688;33.040;2022-09-01T04:21:51;100385.72;;;29.78;100.00
49377;BME280;35253;34.688;33.040;2022-09-01T04:24:18;100374.94;;;29.76;100.00
49377;BME280;35253;34.688;33.040;2022-09-01T04:26:44;100378.00;;;29.93;100.00
49377;BME280;35253;34.688;33.040;2022-09-01T04:29:13;100380.91;;;30.05;100.00
49377;BME280;35253;34.688;33.040;2022-09-01T04:31:39;100385.44;;;30.17;100.00
49377;BME280;35253;34.688;33.040;2022-09-01T04:34:06;100376.97;;;30.19;100.00
49377;BME280;35253;34.688;33.040;2022-09-01T04:36:42;100375.47;;;30.41;100.00
49377;BME280;35253;34.688;33.040;2022-09-01T04:39:09;100374.59;;;30.47;100.00
49377;BME280;35253;34.688;33.040;2022-09-01T04:41:36;100378.84;;;30.43;100.00
49377;BME280;35253;34.688;33.040;2022-09-01T04:44:03;100374.91;;;30.57;100.00
49377;BME280;35253;34.688;33.040;2022-09-01T04:46:30;100366.81;;;30.62;100.00
49377;BME280;35253;34.688;33.040;2022-09-01T04:48:57;100367.09;;;30.72;100.00
49377;BME280;35253;34.688;33.040;2022-09-01T04:51:23;100372.31;;;30.80;100.00
49377;BME280;35253;34.688;33.040;2022-09-01T04:53:52;100372.97;;;30.94;100.00
49377;BME280;35253;34.688;33.040;2022-09-01T04:56:19;100373.97;;;31.00;100.00
49377;BME280;35253;34.688;33.040;2022-09-01T04:58:48;100373.00;;;31.12;100.00
49377;BME280;35253;34.688;33.040;2022-09-01T05:01:18;100363.25;;;31.28;100.00
49377;BME280;35253;34.688;33.040;2022-09-01T05:03:44;100360.50;;;31.28;100.00
49377;BME280;35253;34.688;33.040;2022-09-01T05:06:14;100370.50;;;31.41;100.00
49377;BME280;35253;34.688;33.040;2022-09-01T05:08:39;100369.66;;;31.40;100.00
49377;BME280;35253;34.688;33.040;2022-09-01T05:11:06;100365.88;;;31.23;100.00
49377;BME280;35253;34.688;33.040;2022-09-01T05:13:35;100371.84;;;31.50;100.00
49377;BME280;35253;34.688;33.040;2022-09-01T05:16:07;100367.75;;;31.70;100.00
49377;BME280;35253;34.688;33.040;2022-09-01T05:18:37;100367.13;;;31.68;100.00
49377;BME280;35253;34.688;33.040;2022-09-01T05:21:04;100380.13;;;31.80;100.00
49377;BME280;35253;34.688;33.040;2022-09-01T05:23:34;100378.28;;;31.44;100.00
49377;BME280;35253;34.688;33.040;2022-09-01T05:26:00;100393.88;;;31.68;100.00
49377;BME280;35253;34.688;33.040;2022-09-01T05:28:28;100392.34;;;31.84;100.00
49377;BME280;35253;34.688;33.040;2022-09-01T05:30:53;100389.38;;;31.97;100.00
49377;BME280;35253;34.688;33.040;2022-09-01T05:33:19;100388.41;;;31.91;100.00
49377;BME280;35253;34.688;33.040;2022-09-01T05:35:53;100384.34;;;32.05;100.00
49377;BME280;35253;34.688;33.040;2022-09-01T05:38:19;100388.13;;;32.11;100.00
49377;BME280;35253;34.688;33.040;2022-09-01T05:40:45;100395.13;;;31.95;100.00
49377;BME280;35253;34.688;33.040;2022-09-01T05:43:19;100390.72;;;32.06;100.00
49377;BME280;35253;34.688;33.040;2022-09-01T05:45:45;100389.72;;;31.89;100.00
49377;BME280;35253;34.688;33.040;2022-09-01T05:48:11;100392.81;;;31.81;100.00
49377;BME280;35253;34.688;33.040;2022-09-01T05:50:41;100382.25;;;31.77;100.00
49377;BME280;35253;34.688;33.040;2022-09-01T05:53:10;100379.28;;;31.79;100.00
49377;BME280;35253;34.688;33.040;2022-09-01T05:55:42;100396.38;;;31.69;100.00
49377;BME280;35253;34.688;33.040;2022-09-01T05:58:08;100383.94;;;31.79;100.00
49377;BME280;35253;34.688;33.040;2022-09-01T06:00:38;100389.56;;;31.72;100.00
49377;BME280;35253;34.688;33.040;2022-09-01T06:03:04;100394.69;;;31.68;100.00
49377;BME280;35253;34.688;33.040;2022-09-01T06:05:33;100393.28;;;31.77;100.00
49377;BME280;35253;34.688;33.040;2022-09-01T06:08:00;100395.31;;;31.70;100.00
49377;BME280;35253;34.688;33.040;2022-09-01T06:10:25;100393.75;;;31.74;100.00
49377;BME280;35253;34.688;33.040;2022-09-01T06:12:51;100391.06;;;31.56;100.00
49377;BME280;35253;34.688;33.040;2022-09-01T06:15:17;100397.94;;;31.47;100.00
49377;BME280;35253;34.688;33.040;2022-09-01T06:17:45;100395.66;;;31.44;100.00
49377;BME280;35253;34.688;33.040;2022-09-01T06:20:11;100399.63;;;31.18;100.00
49377;BME280;35253;34.688;33.040;2022-09-01T06:22:36;100411.00;;;31.22;100.00
49377;BME280;35253;34.688;33.040;2022-09-01T06:25:02;100405.25;;;30.69;100.00
49377;BME280;35253;34.688;33.040;2022-09-01T06:27:33;100410.47;;;30.95;100.00
49377;BME280;35253;34.688;33.040;2022-09-01T06:30:03;100407.38;;;31.10;100.00
49377;BME280;35253;34.688;33.040;2022-09-01T06:32:36;100415.31;;;31.18;100.00
49377;BME280;35253;34.688;33.040;2022-09-01T06:35:02;100413.78;;;31.22;100.00
49377;BME280;35253;34.688;33.040;2022-09-01T06:37:29;100418.06;;;31.18;100.00
49377;BME280;35253;34.688;33.040;2022-09-01T06:39:56;100417.75;;;31.26;100.00
49377;BME280;35253;34.688;33.040;2022-09-01T06:42:22;100420.66;;;31.31;100.00
49377;BME280;35253;34.688;33.040;2022-09-01T06:44:47;100427.53;;;31.40;100.00
49377;BME280;35253;34.688;33.040;2022-09-01T06:47:13;100424.47;;;31.30;100.00
49377;BME280;35253;34.688;33.040;2022-09-01T06:49:39;100427.06;;;31.25;100.00
49377;BME280;35253;34.688;33.040;2022-09-01T06:52:05;100435.03;;;31.33;100.00
49377;BME280;35253;34.688;33.040;2022-09-01T06:54:30;100441.53;;;31.39;100.00
49377;BME280;35253;34.688;33.040;2022-09-01T06:56:58;100435.31;;;31.43;100.00
49377;BME280;35253;34.688;33.040;2022-09-01T06:59:26;100440.75;;;31.50;100.00
49377;BME280;35253;34.688;33.040;2022-09-01T07:01:54;100439.44;;;31.52;100.00
49377;BME280;35253;34.688;33.040;2022-09-01T07:04:25;100444.03;;;30.85;100.00
49377;BME280;35253;34.688;33.040;2022-09-01T07:06:50;100439.88;;;31.01;100.00
49377;BME280;35253;34.688;33.040;2022-09-01T07:09:17;100438.63;;;30.97;100.00
49377;BME280;35253;34.688;33.040;2022-09-01T07:11:42;100437.50;;;31.05;100.00
49377;BME280;35253;34.688;33.040;2022-09-01T07:14:08;100443.19;;;30.85;100.00
49377;BME280;35253;34.688;33.040;2022-09-01T07:16:34;100447.19;;;30.71;100.00
49377;BME280;35253;34.688;33.040;2022-09-01T07:19:03;100443.03;;;30.98;100.00
49377;BME280;35253;34.688;33.040;2022-09-01T07:21:30;100455.72;;;31.06;100.00
49377;BME280;35253;34.688;33.040;2022-09-01T07:23:56;100458.44;;;30.87;100.00
49377;BME280;35253;34.688;33.040;2022-09-01T07:26:24;100455.41;;;30.53;100.00
49377;BME280;35253;34.688;33.040;2022-09-01T07:28:49;100440.06;;;31.00;100.00
49377;BME280;35253;34.688;33.040;2022-09-01T07:31:16;100445.28;;;31.26;100.00
49377;BME280;35253;34.688;33.040;2022-09-01T07:33:44;100448.50;;;31.41;100.00
49377;BME280;35253;34.688;33.040;2022-09-01T07:36:16;100449.72;;;31.45;100.00
49377;BME280;35253;34.688;33.040;2022-09-01T07:38:42;100438.22;;;31.48;100.00
49377;BME280;35253;34.688;33.040;2022-09-01T07:41:08;100436.22;;;31.55;100.00
49377;BME280;35253;34.688;33.040;2022-09-01T07:43:37;100438.53;;;31.58;100.00
49377;BME280;35253;34.688;33.040;2022-09-01T07:46:06;100437.13;;;31.67;100.00
49377;BME280;35253;34.688;33.040;2022-09-01T07:48:31;100433.94;;;31.82;100.00
49377;BME280;35253;34.688;33.040;2022-09-01T07:50:57;100444.72;;;31.72;100.00
49377;BME280;35253;34.688;33.040;2022-09-01T07:53:23;100436.19;;;31.73;100.00
49377;BME280;35253;34.688;33.040;2022-09-01T07:55:50;100435.00;;;31.51;100.00
49377;BME280;35253;34.688;33.040;2022-09-01T07:58:16;100438.59;;;31.82;100.00
49377;BME280;35253;34.688;33.040;2022-09-01T08:00:43;100439.78;;;31.26;100.00
49377;BME280;35253;34.688;33.040;2022-09-01T08:03:09;100439.47;;;30.98;100.00
49377;BME280;35253;34.688;33.040;2022-09-01T08:05:35;100432.66;;;30.82;100.00
49377;BME280;35253;34.688;33.040;2022-09-01T08:08:00;100437.09;;;30.83;100.00
49377;BME280;35253;34.688;33.040;2022-09-01T08:10:26;100435.72;;;30.92;100.00
49377;BME280;35253;34.688;33.040;2022-09-01T08:12:51;100435.66;;;31.17;100.00
49377;BME280;35253;34.688;33.040;2022-09-01T08:15:17;100431.72;;;31.43;100.00
49377;BME280;35253;34.688;33.040;2022-09-01T08:17:42;100437.53;;;30.98;100.00
49377;BME280;35253;34.688;33.040;2022-09-01T08:20:08;100435.19;;;30.83;100.00
49377;BME280;35253;34.688;33.040;2022-09-01T08:22:34;100429.41;;;31.10;100.00
49377;BME280;35253;34.688;33.040;2022-09-01T08:25:02;100437.34;;;31.18;100.00
49377;BME280;35253;34.688;33.040;2022-09-01T08:27:28;100435.38;;;31.07;100.00
49377;BME280;35253;34.688;33.040;2022-09-01T08:29:53;100431.78;;;31.54;100.00
49377;BME280;35253;34.688;33.040;2022-09-01T08:32:19;100433.38;;;31.14;100.00
49377;BME280;35253;34.688;33.040;2022-09-01T08:34:45;100436.38;;;31.60;100.00
49377;BME280;35253;34.688;33.040;2022-09-01T08:37:11;100434.03;;;31.75;100.00
49377;BME280;35253;34.688;33.040;2022-09-01T08:39:37;100434.31;;;31.86;100.00
49377;BME280;35253;34.688;33.040;2022-09-01T08:44:52;100430.44;;;32.16;100.00
49377;BME280;35253;34.688;33.040;2022-09-01T08:47:21;100434.06;;;32.29;100.00
49377;BME280;35253;34.688;33.040;2022-09-01T08:49:47;100431.81;;;32.37;100.00
49377;BME280;35253;34.688;33.040;2022-09-01T08:52:36;100422.81;;;32.42;100.00
49377;BME280;35253;34.688;33.040;2022-09-01T08:57:29;100431.44;;;32.45;100.00
49377;BME280;35253;34.688;33.040;2022-09-01T08:59:56;100422.22;;;32.51;100.00
49377;BME280;35253;34.688;33.040;2022-09-01T09:10:39;100418.91;;;31.66;100.00
49377;BME280;35253;34.688;33.040;2022-09-01T09:15:11;100424.59;;;31.53;100.00
49377;BME280;35253;34.688;33.040;2022-09-01T09:17:40;100417.78;;;31.38;100.00
49377;BME280;35253;34.688;33.040;2022-09-01T09:20:08;100412.78;;;31.94;100.00
49377;BME280;35253;34.688;33.040;2022-09-01T09:22:35;100416.53;;;31.04;100.00
49377;BME280;35253;34.688;33.040;2022-09-01T09:25:13;100415.25;;;31.84;100.00
49377;BME280;35253;34.688;33.040;2022-09-01T09:27:40;100418.81;;;32.26;100.00
49377;BME280;35253;34.688;33.040;2022-09-01T09:30:10;100412.81;;;32.52;100.00
49377;BME280;35253;34.688;33.040;2022-09-01T09:35:30;100427.38;;;30.99;100.00
49377;BME280;35253;34.688;33.040;2022-09-01T09:43:41;100415.41;;;32.01;100.00
49377;BME280;35253;34.688;33.040;2022-09-01T09:49:05;100413.56;;;31.53;100.00
49377;BME280;35253;34.688;33.040;2022-09-01T09:51:31;100415.41;;;32.01;100.00
49377;BME280;35253;34.688;33.040;2022-09-01T09:54:10;100417.41;;;32.58;100.00
49377;BME280;35253;34.688;33.040;2022-09-01T09:56:37;100416.16;;;33.01;100.00
49377;BME280;35253;34.688;33.040;2022-09-01T09:59:28;100421.59;;;32.38;100.00
49377;BME280;35253;34.688;33.040;2022-09-01T10:01:52;100423.06;;;32.75;100.00
49377;BME280;35253;34.688;33.040;2022-09-01T10:04:35;100422.31;;;32.91;100.00
49377;BME280;35253;34.688;33.040;2022-09-01T10:07:04;100416.31;;;32.36;100.00
49377;BME280;35253;34.688;33.040;2022-09-01T10:09:41;100418.13;;;32.66;100.00
49377;BME280;35253;34.688;33.040;2022-09-01T10:12:06;100412.47;;;33.35;100.00
49377;BME280;35253;34.688;33.040;2022-09-01T10:14:40;100414.53;;;33.68;100.00
49377;BME280;35253;34.688;33.040;2022-09-01T10:17:11;100415.19;;;34.04;100.00
49377;BME280;35253;34.688;33.040;2022-09-01T10:20:00;100405.94;;;33.98;100.00
49377;BME280;35253;34.688;33.040;2022-09-01T10:22:29;100403.31;;;33.46;100.00
49377;BME280;35253;34.688;33.040;2022-09-01T10:24:55;100402.41;;;33.58;100.00
49377;BME280;35253;34.688;33.040;2022-09-01T10:27:22;100414.97;;;33.77;100.00
49377;BME280;35253;34.688;33.040;2022-09-01T10:29:54;100406.41;;;34.23;100.00
49377;BME280;35253;34.688;33.040;2022-09-01T10:32:25;100405.44;;;34.68;100.00
49377;BME280;35253;34.688;33.040;2022-09-01T10:34:51;100413.34;;;34.43;100.00
49377;BME280;35253;34.688;33.040;2022-09-01T10:37:17;100404.44;;;34.74;100.00
49377;BME280;35253;34.688;33.040;2022-09-01T10:42:41;100405.38;;;35.01;100.00
49377;BME280;35253;34.688;33.040;2022-09-01T10:47:52;100404.75;;;32.97;100.00
49377;BME280;35253;34.688;33.040;2022-09-01T10:50:30;100408.41;;;32.86;100.00
49377;BME280;35253;34.688;33.040;2022-09-01T10:53:00;100400.81;;;34.18;100.00
49377;BME280;35253;34.688;33.040;2022-09-01T11:00:49;100397.94;;;32.53;100.00
49377;BME280;35253;34.688;33.040;2022-09-01T11:06:02;100397.91;;;32.07;100.00
49377;BME280;35253;34.688;33.040;2022-09-01T11:16:24;100385.06;;;33.17;100.00
49377;BME280;35253;34.688;33.040;2022-09-01T11:18:51;100393.41;;;32.71;100.00
49377;BME280;35253;34.688;33.040;2022-09-01T11:21:24;100384.81;;;33.07;100.00
49377;BME280;35253;34.688;33.040;2022-09-01T11:23:50;100386.28;;;33.38;100.00
49377;BME280;35253;34.688;33.040;2022-09-01T11:26:48;100378.13;;;33.31;100.00
49377;BME280;35253;34.688;33.040;2022-09-01T11:29:07;100381.59;;;33.38;100.00
49377;BME280;35253;34.688;33.040;2022-09-01T11:31:41;100371.28;;;33.34;100.00
49377;BME280;35253;34.688;33.040;2022-09-01T11:36:36;100363.03;;;33.22;100.00
49377;BME280;35253;34.688;33.040;2022-09-01T11:47:04;100369.59;;;33.33;100.00
49377;BME280;35253;34.688;33.040;2022-09-01T11:49:34;100364.59;;;33.30;100.00
49377;BME280;35253;34.688;33.040;2022-09-01T11:52:00;100359.44;;;33.50;100.00
49377;BME280;35253;34.688;33.040;2022-09-01T11:54:36;100367.91;;;33.32;100.00
49377;BME280;35253;34.688;33.040;2022-09-01T11:57:19;100364.47;;;33.13;100.00
49377;BME280;35253;34.688;33.040;2022-09-01T11:59:45;100360.28;;;33.11;100.00
49377;BME280;35253;34.688;33.040;2022-09-01T12:02:20;100356.88;;;33.32;100.00
49377;BME280;35253;34.688;33.040;2022-09-01T12:04:47;100353.69;;;32.60;100.00
49377;BME280;35253;34.688;33.040;2022-09-01T12:07:22;100355.44;;;32.89;100.00
49377;BME280;35253;34.688;33.040;2022-09-01T12:09:49;100346.38;;;33.05;100.00
49377;BME280;35253;34.688;33.040;2022-09-01T12:14:56;100351.31;;;33.03;100.00
49377;BME280;35253;34.688;33.040;2022-09-01T12:17:22;100345.34;;;32.83;100.00
49377;BME280;35253;34.688;33.040;2022-09-01T12:19:48;100352.44;;;32.91;100.00
49377;BME280;35253;34.688;33.040;2022-09-01T12:22:14;100346.00;;;32.39;100.00
49377;BME280;35253;34.688;33.040;2022-09-01T12:24:44;100342.59;;;32.95;100.00
49377;BME280;35253;34.688;33.040;2022-09-01T12:27:10;100349.19;;;32.94;100.00
49377;BME280;35253;34.688;33.040;2022-09-01T12:29:36;100340.72;;;32.72;100.00
49377;BME280;35253;34.688;33.040;2022-09-01T12:32:02;100340.50;;;33.02;100.00
49377;BME280;35253;34.688;33.040;2022-09-01T12:39:32;100332.78;;;32.76;100.00
49377;BME280;35253;34.688;33.040;2022-09-01T12:42:05;100331.94;;;32.52;100.00
49377;BME280;35253;34.688;33.040;2022-09-01T12:47:07;100328.72;;;32.43;100.00
49377;BME280;35253;34.688;33.040;2022-09-01T12:49:34;100332.81;;;32.17;100.00
49377;BME280;35253;34.688;33.040;2022-09-01T12:52:21;100341.88;;;31.95;100.00
49377;BME280;35253;34.688;33.040;2022-09-01T12:54:50;100327.56;;;32.16;100.00
49377;BME280;35253;34.688;33.040;2022-09-01T13:02:36;100322.38;;;32.31;100.00
49377;BME280;35253;34.688;33.040;2022-09-01T13:07:43;100321.63;;;32.59;100.00
49377;BME280;35253;34.688;33.040;2022-09-01T13:10:08;100325.59;;;32.63;100.00
49377;BME280;35253;34.688;33.040;2022-09-01T13:12:37;100318.75;;;32.66;100.00
49377;BME280;35253;34.688;33.040;2022-09-01T13:15:05;100324.88;;;32.44;100.00
49377;BME280;35253;34.688;33.040;2022-09-01T13:17:30;100321.88;;;32.69;100.00
49377;BME280;35253;34.688;33.040;2022-09-01T13:19:56;100318.84;;;32.71;100.00
49377;BME280;35253;34.688;33.040;2022-09-01T13:22:22;100311.00;;;32.91;100.00
49377;BME280;35253;34.688;33.040;2022-09-01T13:24:47;100318.63;;;32.72;100.00
49377;BME280;35253;34.688;33.040;2022-09-01T13:27:13;100315.69;;;32.90;100.00
49377;BME280;35253;34.688;33.040;2022-09-01T13:29:39;100317.09;;;32.65;100.00
49377;BME280;35253;34.688;33.040;2022-09-01T13:32:05;100314.34;;;32.41;100.00
49377;BME280;35253;34.688;33.040;2022-09-01T13:34:33;100313.72;;;32.39;100.00
49377;BME280;35253;34.688;33.040;2022-09-01T13:36:58;100315.16;;;32.07;100.00
49377;BME280;35253;34.688;33.040;2022-09-01T13:39:24;100317.09;;;32.30;100.00
49377;BME280;35253;34.688;33.040;2022-09-01T13:41:49;100318.78;;;32.42;100.00
49377;BME280;35253;34.688;33.040;2022-09-01T13:44:14;100326.31;;;32.70;100.00
49377;BME280;35253;34.688;33.040;2022-09-01T13:46:40;100318.53;;;32.55;100.00
49377;BME280;35253;34.688;33.040;2022-09-01T13:49:07;100326.69;;;32.27;100.00
49377;BME280;35253;34.688;33.040;2022-09-01T13:51:32;100316.38;;;32.34;100.00